createdAt,value
2023-05-02T00:00:19.753Z,100.00
2023-05-02T00:05:21.522Z,100.00
2023-05-02T00:10:23.217Z,100.00
2023-05-02T00:15:24.737Z,100.00
2023-05-02T00:20:26.359Z,100.00
2023-05-02T00:25:27.878Z,100.00
2023-05-02T00:30:29.880Z,100.00
2023-05-02T00:35:33.549Z,100.00
2023-05-02T00:40:44.957Z,100.00
2023-05-02T00:45:46.852Z,100.00
2023-05-02T00:50:48.439Z,100.00
2023-05-02T00:55:50.168Z,100.00
2023-05-02T01:01:29.742Z,100.00
2023-05-02T01:07:08.356Z,100.00
2023-05-02T01:12:31.282Z,100.00
2023-05-02T01:17:34.499Z,100.00
2023-05-02T01:22:38.835Z,100.00
2023-05-02T01:28:10.409Z,100.00
2023-05-02T01:33:15.087Z,100.00
2023-05-02T01:38:19.293Z,100.00
2023-05-02T01:43:21.817Z,100.00
2023-05-02T01:48:25.633Z,100.00
2023-05-02T01:53:30.183Z,100.00
2023-05-02T01:58:35.593Z,100.00
2023-05-02T02:03:37.131Z,100.00
2023-05-02T02:08:38.824Z,100.00
2023-05-02T02:13:48.073Z,100.00
2023-05-02T02:18:50.562Z,100.00
2023-05-02T02:23:55.906Z,100.00
2023-05-02T02:28:57.604Z,100.00
2023-05-02T02:33:59.837Z,100.00
2023-05-02T02:39:16.776Z,100.00
2023-05-02T02:44:21.249Z,100.00
2023-05-02T02:49:46.806Z,100.00
2023-05-02T02:55:23.648Z,100.00
2023-05-02T03:00:27.687Z,100.00
2023-05-02T03:05:29.658Z,100.00
2023-05-02T03:10:31.301Z,100.00
2023-05-02T03:15:51.884Z,100.00
2023-05-02T03:20:57.837Z,100.00
2023-05-02T03:26:00.134Z,100.00
2023-05-02T03:31:01.770Z,100.00
2023-05-02T03:36:07.317Z,100.00
2023-05-02T03:41:09.408Z,100.00
2023-05-02T03:46:11.345Z,100.00
2023-05-02T03:51:17.115Z,100.00
2023-05-02T03:56:22.418Z,100.00
2023-05-02T04:01:34.742Z,100.00
2023-05-02T04:06:37.665Z,100.00
2023-05-02T04:11:42.066Z,100.00
2023-05-02T04:16:49.704Z,100.00
2023-05-02T04:21:55.603Z,100.00
2023-05-02T04:26:57.553Z,100.00
2023-05-02T04:32:00.108Z,100.00
2023-05-02T04:37:03.656Z,100.00
2023-05-02T04:42:07.531Z,100.00
2023-05-02T04:47:16.583Z,100.00
2023-05-02T04:52:20.064Z,100.00
2023-05-02T04:57:23.297Z,100.00
2023-05-02T05:02:29.678Z,100.00
2023-05-02T05:07:32.726Z,100.00
2023-05-02T05:12:34.333Z,100.00
2023-05-02T05:17:36.064Z,100.00
2023-05-02T05:22:42.147Z,100.00
2023-05-02T05:27:45.936Z,100.00
2023-05-02T05:32:47.915Z,100.00
2023-05-02T05:37:49.615Z,100.00
2023-05-02T05:42:52.622Z,100.00
2023-05-02T05:48:02.421Z,100.00
2023-05-02T05:53:08.243Z,100.00
2023-05-02T05:58:12.615Z,100.00
2023-05-02T06:03:15.771Z,100.00
2023-05-02T06:08:17.675Z,100.00
2023-05-02T06:13:19.318Z,100.00
2023-05-02T06:18:22.187Z,100.00
2023-05-02T06:23:23.736Z,100.00
2023-05-02T06:28:25.253Z,100.00
2023-05-02T06:33:27.938Z,100.00
2023-05-02T06:38:29.765Z,100.00
2023-05-02T06:43:31.386Z,100.00
2023-05-02T06:48:32.937Z,100.00
2023-05-02T06:53:34.478Z,100.00
2023-05-02T06:58:36.122Z,100.00
2023-05-02T07:03:37.661Z,100.00
2023-05-02T07:08:39.175Z,100.00
2023-05-02T07:13:40.728Z,100.00
2023-05-02T07:18:43.330Z,100.00
2023-05-02T07:23:44.859Z,100.00
2023-05-02T07:28:46.379Z,100.00
2023-05-02T07:33:47.904Z,100.00
2023-05-02T07:38:49.422Z,100.00
2023-05-02T07:43:50.957Z,100.00
2023-05-02T07:48:52.557Z,100.00
2023-05-02T07:53:54.239Z,100.00
2023-05-02T07:58:55.957Z,100.00
2023-05-02T08:03:57.607Z,100.00
2023-05-02T08:08:59.799Z,100.00
2023-05-02T08:14:01.567Z,100.00
2023-05-02T08:19:03.143Z,100.00
2023-05-02T08:24:04.798Z,100.00
2023-05-02T08:29:06.306Z,100.00
2023-05-02T08:34:07.861Z,100.00
2023-05-02T08:39:09.497Z,100.00
2023-05-02T08:44:12.044Z,100.00
2023-05-02T08:49:15.717Z,100.00
2023-05-02T08:54:18.901Z,100.00
2023-05-02T08:59:20.699Z,100.00
2023-05-02T09:04:24.529Z,100.00
2023-05-02T09:09:26.874Z,100.00
2023-05-02T09:14:28.448Z,100.00
2023-05-02T09:19:29.986Z,100.00
2023-05-02T09:24:31.535Z,100.00
2023-05-02T09:29:34.238Z,100.00
2023-05-02T09:34:35.872Z,100.00
2023-05-02T09:39:37.414Z,100.00
2023-05-02T09:44:38.930Z,100.00
2023-05-02T09:49:45.712Z,100.00
2023-05-02T09:54:47.950Z,100.00
2023-05-02T09:59:56.720Z,100.00
2023-05-02T10:05:00.458Z,100.00
2023-05-02T10:10:03.319Z,100.00
2023-05-02T10:15:07.985Z,100.00
2023-05-02T10:20:13.947Z,100.00
2023-05-02T10:25:15.696Z,98.46
2023-05-02T10:30:17.408Z,92.54
2023-05-02T10:35:19.742Z,91.57
2023-05-02T10:40:21.378Z,88.16
2023-05-02T10:45:36.663Z,83.00
2023-05-02T10:50:45.481Z,79.70
2023-05-02T10:56:10.018Z,78.75
2023-05-02T11:01:29.657Z,76.90
2023-05-02T11:06:36.414Z,79.07
2023-05-02T11:11:38.849Z,80.84
2023-05-02T11:16:59.134Z,81.76
2023-05-02T11:22:19.274Z,78.43
2023-05-02T11:27:29.918Z,78.10
2023-05-02T11:32:54.613Z,79.09
2023-05-02T11:38:00.148Z,74.99
2023-05-02T11:43:13.105Z,73.44
2023-05-02T11:48:18.022Z,73.74
2023-05-02T11:53:21.914Z,67.01
2023-05-02T11:58:26.043Z,72.16
2023-05-02T12:03:33.206Z,72.78
2023-05-02T12:08:34.936Z,72.99
2023-05-02T12:13:45.525Z,76.09
2023-05-02T12:18:48.079Z,72.61
2023-05-02T12:23:49.841Z,70.62
2023-05-02T12:28:52.509Z,70.48
2023-05-02T12:33:54.140Z,72.06
2023-05-02T12:38:57.411Z,65.06
2023-05-02T12:43:59.014Z,62.53
2023-05-02T12:49:07.868Z,63.23
2023-05-02T12:54:20.664Z,66.36
2023-05-02T12:59:29.999Z,66.78
2023-05-02T13:04:38.981Z,66.97
2023-05-02T13:09:40.649Z,65.82
2023-05-02T13:14:42.325Z,60.97
2023-05-02T13:19:50.579Z,57.47
2023-05-02T13:24:55.741Z,56.06
2023-05-02T13:29:57.325Z,55.99
2023-05-02T13:34:58.855Z,57.87
2023-05-02T13:40:00.814Z,56.08
2023-05-02T13:45:02.621Z,54.49
2023-05-02T13:50:04.753Z,55.17
2023-05-02T13:55:06.825Z,53.67
2023-05-02T14:00:09.133Z,56.18
2023-05-02T14:05:10.621Z,56.14
2023-05-02T14:10:12.327Z,52.55
2023-05-02T14:15:14.066Z,52.54
2023-05-02T14:20:15.643Z,46.41
2023-05-02T14:25:17.198Z,50.14
2023-05-02T14:30:18.830Z,51.42
2023-05-02T14:35:20.523Z,50.97
2023-05-02T14:40:22.073Z,49.05
2023-05-02T14:45:23.624Z,50.60
2023-05-02T14:50:25.343Z,52.83
2023-05-02T14:55:26.956Z,54.01
2023-05-02T15:00:28.571Z,53.52
2023-05-02T15:05:31.456Z,53.28
2023-05-02T15:10:37.133Z,53.86
2023-05-02T15:15:38.759Z,51.50
2023-05-02T15:20:40.272Z,52.64
2023-05-02T15:25:41.810Z,50.35
2023-05-02T15:30:43.362Z,48.02
2023-05-02T15:35:56.302Z,48.86
2023-05-02T15:40:59.556Z,48.08
2023-05-02T15:46:01.651Z,44.86
2023-05-02T15:51:03.913Z,45.65
2023-05-02T15:56:09.165Z,49.23
2023-05-02T16:01:10.845Z,46.88
2023-05-02T16:06:12.598Z,44.70
2023-05-02T16:11:14.136Z,43.23
2023-05-02T16:16:17.883Z,43.10
2023-05-02T16:21:19.529Z,44.75
2023-05-02T16:26:21.116Z,43.75
2023-05-02T16:31:22.744Z,46.21
2023-05-02T16:36:24.681Z,47.47
2023-05-02T16:41:26.347Z,47.92
2023-05-02T16:46:28.003Z,49.75
2023-05-02T16:51:29.609Z,47.61
2023-05-02T16:56:31.135Z,49.33
2023-05-02T17:01:34.965Z,49.48
2023-05-02T17:06:36.539Z,48.69
2023-05-02T17:11:38.104Z,48.54
2023-05-02T17:16:40.347Z,47.55
2023-05-02T17:21:41.937Z,49.55
2023-05-02T17:26:43.555Z,49.15
2023-05-02T17:31:45.271Z,50.60
2023-05-02T17:36:46.831Z,51.58
2023-05-02T17:41:48.445Z,50.51
2023-05-02T17:46:50.002Z,53.15
2023-05-02T17:51:51.568Z,52.82
2023-05-02T17:56:53.316Z,54.47
2023-05-02T18:01:54.902Z,55.11
2023-05-02T18:06:56.671Z,57.52
2023-05-02T18:11:58.290Z,58.37
2023-05-02T18:16:59.847Z,59.74
2023-05-02T18:22:01.469Z,59.79
2023-05-02T18:27:03.179Z,60.22
2023-05-02T18:32:04.869Z,60.83
2023-05-02T18:37:06.558Z,62.60
2023-05-02T18:42:08.169Z,64.42
2023-05-02T18:47:09.748Z,65.77
2023-05-02T18:52:11.440Z,66.23
2023-05-02T18:57:12.999Z,66.79
2023-05-02T19:02:15.205Z,68.99
2023-05-02T19:07:16.779Z,70.48
2023-05-02T19:12:18.298Z,72.91
2023-05-02T19:17:19.839Z,72.95
2023-05-02T19:22:21.431Z,73.41
2023-05-02T19:27:22.988Z,73.22
2023-05-02T19:32:24.631Z,74.54
2023-05-02T19:37:26.321Z,73.59
2023-05-02T19:42:27.883Z,75.41
2023-05-02T19:47:29.525Z,76.25
2023-05-02T19:52:31.123Z,74.42
2023-05-02T19:57:32.677Z,73.56
2023-05-02T20:02:34.308Z,74.49
2023-05-02T20:07:35.988Z,73.84
2023-05-02T20:12:37.709Z,76.66
2023-05-02T20:17:39.296Z,76.87
2023-05-02T20:22:40.833Z,77.45
2023-05-02T20:27:42.731Z,79.00
2023-05-02T20:32:44.468Z,78.96
2023-05-02T20:37:46.178Z,79.95
2023-05-02T20:42:47.994Z,81.59
2023-05-02T20:47:50.037Z,82.58
2023-05-02T20:52:51.666Z,83.41
2023-05-02T20:57:53.790Z,83.64
2023-05-02T21:02:55.511Z,85.95
2023-05-02T21:07:57.097Z,87.80
2023-05-02T21:12:58.680Z,85.85
2023-05-02T21:18:01.590Z,87.22
2023-05-02T21:23:03.241Z,87.84
2023-05-02T21:28:05.331Z,93.35
2023-05-02T21:33:06.871Z,92.58
2023-05-02T21:38:08.467Z,91.49
2023-05-02T21:43:10.028Z,94.37
2023-05-02T21:48:13.149Z,96.15
2023-05-02T21:53:14.766Z,98.33
2023-05-02T21:58:16.341Z,100.00
2023-05-02T22:03:18.010Z,100.00
2023-05-02T22:08:19.534Z,100.00
2023-05-02T22:13:21.108Z,100.00
2023-05-02T22:18:22.668Z,100.00
2023-05-02T22:23:24.222Z,100.00
2023-05-02T22:28:25.806Z,100.00
2023-05-02T22:33:27.416Z,100.00
2023-05-02T22:38:28.994Z,100.00
2023-05-02T22:43:30.719Z,100.00
2023-05-02T22:48:32.298Z,100.00
2023-05-02T22:53:33.866Z,100.00
2023-05-02T22:58:35.477Z,100.00
2023-05-02T23:03:37.172Z,100.00
2023-05-02T23:08:38.763Z,100.00
2023-05-02T23:13:40.293Z,100.00
2023-05-02T23:18:41.829Z,100.00
2023-05-02T23:23:43.593Z,100.00
2023-05-02T23:28:45.134Z,100.00
2023-05-02T23:33:46.764Z,100.00
2023-05-02T23:38:48.397Z,100.00
2023-05-02T23:43:49.940Z,100.00
2023-05-02T23:48:51.521Z,100.00
2023-05-02T23:53:53.146Z,100.00
2023-05-02T23:58:55.238Z,100.00
